sensor_id;sensor_type;location;lat;lon;timestamp;P1;durP1;ratioP1;P2;durP2;ratioP2
51883;SDS011;37915;53.254;6.598;2022-09-09T00:04:33;12.32;;;6.63;;
51883;SDS011;37915;53.254;6.598;2022-09-09T00:07:10;11.40;;;7.43;;
51883;SDS011;37915;53.254;6.598;2022-09-09T00:12:40;15.80;;;7.03;;
51883;SDS011;37915;53.254;6.598;2022-09-09T00:15:37;12.95;;;6.88;;
51883;SDS011;37915;53.254;6.598;2022-09-09T00:20:51;9.98;;;6.80;;
51883;SDS011;37915;53.254;6.598;2022-09-09T00:23:27;11.55;;;7.35;;
51883;SDS011;37915;53.254;6.598;2022-09-09T00:31:34;11.00;;;6.70;;
51883;SDS011;37915;53.254;6.598;2022-09-09T00:34:21;10.73;;;6.47;;
51883;SDS011;37915;53.254;6.598;2022-09-09T00:36:50;11.20;;;6.90;;
51883;SDS011;37915;53.254;6.598;2022-09-09T00:47:51;12.50;;;7.07;;
51883;SDS011;37915;53.254;6.598;2022-09-09T00:53:12;11.55;;;6.63;;
51883;SDS011;37915;53.254;6.598;2022-09-09T00:58:24;13.27;;;6.70;;
51883;SDS011;37915;53.254;6.598;2022-09-09T01:00:55;10.93;;;7.43;;
51883;SDS011;37915;53.254;6.598;2022-09-09T01:06:12;9.20;;;7.03;;
51883;SDS011;37915;53.254;6.598;2022-09-09T01:16:56;12.25;;;6.60;;
51883;SDS011;37915;53.254;6.598;2022-09-09T01:19:35;9.85;;;6.20;;
51883;SDS011;37915;53.254;6.598;2022-09-09T01:22:20;12.15;;;6.05;;
51883;SDS011;37915;53.254;6.598;2022-09-09T01:25:10;9.15;;;5.80;;
51883;SDS011;37915;53.254;6.598;2022-09-09T01:27:56;10.00;;;5.40;;
51883;SDS011;37915;53.254;6.598;2022-09-09T01:30:27;9.00;;;6.00;;
51883;SDS011;37915;53.254;6.598;2022-09-09T01:32:54;9.57;;;5.38;;
51883;SDS011;37915;53.254;6.598;2022-09-09T01:37:55;9.98;;;5.68;;
51883;SDS011;37915;53.254;6.598;2022-09-09T01:40:21;9.50;;;5.20;;
51883;SDS011;37915;53.254;6.598;2022-09-09T01:42:47;10.88;;;5.50;;
51883;SDS011;37915;53.254;6.598;2022-09-09T01:45:13;7.47;;;5.70;;
51883;SDS011;37915;53.254;6.598;2022-09-09T01:47:39;7.40;;;4.93;;
51883;SDS011;37915;53.254;6.598;2022-09-09T01:50:05;13.07;;;5.88;;
51883;SDS011;37915;53.254;6.598;2022-09-09T01:52:33;11.35;;;4.88;;
51883;SDS011;37915;53.254;6.598;2022-09-09T01:55:01;9.73;;;5.72;;
51883;SDS011;37915;53.254;6.598;2022-09-09T01:57:29;8.52;;;5.60;;
51883;SDS011;37915;53.254;6.598;2022-09-09T02:00:08;8.77;;;5.75;;
51883;SDS011;37915;53.254;6.598;2022-09-09T02:02:42;8.48;;;5.05;;
51883;SDS011;37915;53.254;6.598;2022-09-09T02:08:30;11.57;;;5.65;;
51883;SDS011;37915;53.254;6.598;2022-09-09T02:11:17;8.40;;;5.70;;
51883;SDS011;37915;53.254;6.598;2022-09-09T02:13:47;9.85;;;5.82;;
51883;SDS011;37915;53.254;6.598;2022-09-09T02:21:39;11.18;;;5.65;;
51883;SDS011;37915;53.254;6.598;2022-09-09T02:24:08;10.90;;;5.55;;
51883;SDS011;37915;53.254;6.598;2022-09-09T02:26:37;8.68;;;6.07;;
51883;SDS011;37915;53.254;6.598;2022-09-09T02:29:08;8.23;;;6.07;;
51883;SDS011;37915;53.254;6.598;2022-09-09T02:31:46;11.38;;;7.00;;
51883;SDS011;37915;53.254;6.598;2022-09-09T02:34:14;11.20;;;6.90;;
51883;SDS011;37915;53.254;6.598;2022-09-09T02:36:44;13.20;;;7.53;;
51883;SDS011;37915;53.254;6.598;2022-09-09T02:39:12;13.07;;;7.72;;
51883;SDS011;37915;53.254;6.598;2022-09-09T02:41:39;11.20;;;7.80;;
51883;SDS011;37915;53.254;6.598;2022-09-09T02:44:10;13.90;;;7.13;;
51883;SDS011;37915;53.254;6.598;2022-09-09T02:52:02;15.40;;;7.47;;
51883;SDS011;37915;53.254;6.598;2022-09-09T02:54:35;11.35;;;7.53;;
51883;SDS011;37915;53.254;6.598;2022-09-09T02:57:25;12.45;;;7.88;;
51883;SDS011;37915;53.254;6.598;2022-09-09T02:59:52;15.18;;;8.38;;
51883;SDS011;37915;53.254;6.598;2022-09-09T03:02:20;12.63;;;7.35;;
51883;SDS011;37915;53.254;6.598;2022-09-09T03:04:45;16.20;;;7.30;;
51883;SDS011;37915;53.254;6.598;2022-09-09T03:07:15;10.20;;;6.80;;
51883;SDS011;37915;53.254;6.598;2022-09-09T03:09:42;11.95;;;7.53;;
51883;SDS011;37915;53.254;6.598;2022-09-09T03:12:08;11.23;;;7.57;;
51883;SDS011;37915;53.254;6.598;2022-09-09T03:14:36;11.20;;;7.13;;
51883;SDS011;37915;53.254;6.598;2022-09-09T03:17:03;12.85;;;6.43;;
51883;SDS011;37915;53.254;6.598;2022-09-09T03:19:29;10.93;;;6.60;;
51883;SDS011;37915;53.254;6.598;2022-09-09T03:21:56;10.73;;;7.00;;
51883;SDS011;37915;53.254;6.598;2022-09-09T03:24:23;9.95;;;6.40;;
51883;SDS011;37915;53.254;6.598;2022-09-09T03:26:49;12.52;;;7.53;;
51883;SDS011;37915;53.254;6.598;2022-09-09T03:29:15;11.45;;;6.03;;
51883;SDS011;37915;53.254;6.598;2022-09-09T03:31:42;9.77;;;6.90;;
51883;SDS011;37915;53.254;6.598;2022-09-09T03:34:08;10.55;;;5.82;;
51883;SDS011;37915;53.254;6.598;2022-09-09T03:36:34;9.38;;;5.68;;
51883;SDS011;37915;53.254;6.598;2022-09-09T03:39:00;9.38;;;5.47;;
51883;SDS011;37915;53.254;6.598;2022-09-09T03:41:30;8.85;;;5.65;;
51883;SDS011;37915;53.254;6.598;2022-09-09T03:43:56;10.35;;;4.78;;
51883;SDS011;37915;53.254;6.598;2022-09-09T03:46:23;11.80;;;6.63;;
51883;SDS011;37915;53.254;6.598;2022-09-09T03:48:50;8.90;;;5.20;;
51883;SDS011;37915;53.254;6.598;2022-09-09T03:51:17;6.45;;;4.28;;
51883;SDS011;37915;53.254;6.598;2022-09-09T03:53:43;8.68;;;5.55;;
51883;SDS011;37915;53.254;6.598;2022-09-09T03:56:09;10.60;;;4.68;;
51883;SDS011;37915;53.254;6.598;2022-09-09T03:58:35;6.32;;;4.40;;
51883;SDS011;37915;53.254;6.598;2022-09-09T04:01:03;7.72;;;4.32;;
51883;SDS011;37915;53.254;6.598;2022-09-09T04:03:30;7.55;;;4.53;;
51883;SDS011;37915;53.254;6.598;2022-09-09T04:05:57;8.55;;;3.70;;
51883;SDS011;37915;53.254;6.598;2022-09-09T04:08:25;6.78;;;3.83;;
51883;SDS011;37915;53.254;6.598;2022-09-09T04:10:51;6.47;;;3.20;;
51883;SDS011;37915;53.254;6.598;2022-09-09T04:13:18;8.55;;;3.60;;
51883;SDS011;37915;53.254;6.598;2022-09-09T04:15:50;8.05;;;3.88;;
51883;SDS011;37915;53.254;6.598;2022-09-09T04:18:20;6.15;;;2.90;;
51883;SDS011;37915;53.254;6.598;2022-09-09T04:20:50;5.28;;;2.63;;
51883;SDS011;37915;53.254;6.598;2022-09-09T04:23:17;6.60;;;2.63;;
51883;SDS011;37915;53.254;6.598;2022-09-09T04:25:44;8.80;;;3.03;;
51883;SDS011;37915;53.254;6.598;2022-09-09T04:28:12;5.57;;;2.70;;
51883;SDS011;37915;53.254;6.598;2022-09-09T04:30:38;9.10;;;3.47;;
51883;SDS011;37915;53.254;6.598;2022-09-09T04:33:05;7.75;;;3.00;;
51883;SDS011;37915;53.254;6.598;2022-09-09T04:35:31;4.80;;;2.40;;
51883;SDS011;37915;53.254;6.598;2022-09-09T04:37:58;7.45;;;2.85;;
51883;SDS011;37915;53.254;6.598;2022-09-09T04:40:23;6.80;;;2.60;;
51883;SDS011;37915;53.254;6.598;2022-09-09T04:42:50;7.72;;;2.65;;
51883;SDS011;37915;53.254;6.598;2022-09-09T04:45:16;3.05;;;1.73;;
51883;SDS011;37915;53.254;6.598;2022-09-09T04:47:43;7.18;;;2.72;;
51883;SDS011;37915;53.254;6.598;2022-09-09T04:50:09;8.77;;;2.80;;
51883;SDS011;37915;53.254;6.598;2022-09-09T04:52:35;5.53;;;2.92;;
51883;SDS011;37915;53.254;6.598;2022-09-09T04:55:01;8.10;;;2.50;;
51883;SDS011;37915;53.254;6.598;2022-09-09T04:57:27;11.18;;;3.38;;
51883;SDS011;37915;53.254;6.598;2022-09-09T04:59:53;7.55;;;3.25;;
51883;SDS011;37915;53.254;6.598;2022-09-09T05:02:19;9.00;;;2.70;;
51883;SDS011;37915;53.254;6.598;2022-09-09T05:04:45;5.15;;;2.95;;
51883;SDS011;37915;53.254;6.598;2022-09-09T05:07:11;6.07;;;2.70;;
51883;SDS011;37915;53.254;6.598;2022-09-09T05:09:36;4.95;;;2.88;;
51883;SDS011;37915;53.254;6.598;2022-09-09T05:12:02;4.63;;;2.88;;
51883;SDS011;37915;53.254;6.598;2022-09-09T05:14:28;6.65;;;3.58;;
51883;SDS011;37915;53.254;6.598;2022-09-09T05:16:55;6.13;;;3.63;;
51883;SDS011;37915;53.254;6.598;2022-09-09T05:19:21;5.68;;;3.47;;
51883;SDS011;37915;53.254;6.598;2022-09-09T05:21:47;7.28;;;4.00;;
51883;SDS011;37915;53.254;6.598;2022-09-09T05:24:13;9.20;;;3.97;;
51883;SDS011;37915;53.254;6.598;2022-09-09T05:26:39;6.90;;;4.03;;
51883;SDS011;37915;53.254;6.598;2022-09-09T05:29:04;8.60;;;4.35;;
51883;SDS011;37915;53.254;6.598;2022-09-09T05:31:31;9.63;;;5.10;;
51883;SDS011;37915;53.254;6.598;2022-09-09T05:33:57;10.68;;;4.13;;
51883;SDS011;37915;53.254;6.598;2022-09-09T05:36:24;8.93;;;4.22;;
51883;SDS011;37915;53.254;6.598;2022-09-09T05:38:50;8.00;;;4.57;;
51883;SDS011;37915;53.254;6.598;2022-09-09T05:41:19;12.10;;;4.85;;
51883;SDS011;37915;53.254;6.598;2022-09-09T05:43:45;10.93;;;4.93;;
51883;SDS011;37915;53.254;6.598;2022-09-09T05:46:14;9.73;;;4.68;;
51883;SDS011;37915;53.254;6.598;2022-09-09T05:48:42;9.32;;;5.30;;
51883;SDS011;37915;53.254;6.598;2022-09-09T05:51:11;11.68;;;6.43;;
51883;SDS011;37915;53.254;6.598;2022-09-09T05:53:40;8.25;;;6.10;;
51883;SDS011;37915;53.254;6.598;2022-09-09T05:56:08;12.77;;;5.75;;
51883;SDS011;37915;53.254;6.598;2022-09-09T05:58:36;12.00;;;6.07;;
51883;SDS011;37915;53.254;6.598;2022-09-09T06:01:07;10.82;;;5.93;;
51883;SDS011;37915;53.254;6.598;2022-09-09T06:03:35;11.10;;;6.15;;
51883;SDS011;37915;53.254;6.598;2022-09-09T06:06:06;10.98;;;5.82;;
51883;SDS011;37915;53.254;6.598;2022-09-09T06:08:40;11.00;;;5.72;;
51883;SDS011;37915;53.254;6.598;2022-09-09T06:11:22;9.57;;;6.75;;
51883;SDS011;37915;53.254;6.598;2022-09-09T06:13:52;11.90;;;6.10;;
51883;SDS011;37915;53.254;6.598;2022-09-09T06:16:20;9.60;;;5.70;;
51883;SDS011;37915;53.254;6.598;2022-09-09T06:18:50;11.95;;;6.95;;
51883;SDS011;37915;53.254;6.598;2022-09-09T06:21:18;9.82;;;6.85;;
51883;SDS011;37915;53.254;6.598;2022-09-09T06:24:05;9.88;;;7.03;;
51883;SDS011;37915;53.254;6.598;2022-09-09T06:26:36;11.00;;;7.13;;
51883;SDS011;37915;53.254;6.598;2022-09-09T06:29:06;10.68;;;6.07;;
51883;SDS011;37915;53.254;6.598;2022-09-09T06:31:33;11.60;;;6.38;;
51883;SDS011;37915;53.254;6.598;2022-09-09T06:34:02;11.25;;;5.85;;
51883;SDS011;37915;53.254;6.598;2022-09-09T06:36:31;8.73;;;6.22;;
51883;SDS011;37915;53.254;6.598;2022-09-09T06:38:59;11.02;;;6.40;;
51883;SDS011;37915;53.254;6.598;2022-09-09T06:41:25;11.18;;;6.13;;
51883;SDS011;37915;53.254;6.598;2022-09-09T06:43:53;8.55;;;5.63;;
51883;SDS011;37915;53.254;6.598;2022-09-09T06:46:24;13.25;;;7.05;;
51883;SDS011;37915;53.254;6.598;2022-09-09T06:48:53;10.45;;;5.95;;
51883;SDS011;37915;53.254;6.598;2022-09-09T06:51:23;9.88;;;6.15;;
51883;SDS011;37915;53.254;6.598;2022-09-09T06:53:51;7.35;;;5.35;;
51883;SDS011;37915;53.254;6.598;2022-09-09T06:58:55;8.82;;;5.10;;
51883;SDS011;37915;53.254;6.598;2022-09-09T07:01:23;9.88;;;5.47;;
51883;SDS011;37915;53.254;6.598;2022-09-09T07:03:51;7.85;;;5.53;;
51883;SDS011;37915;53.254;6.598;2022-09-09T07:06:23;11.30;;;5.90;;
51883;SDS011;37915;53.254;6.598;2022-09-09T07:08:51;10.20;;;6.40;;
51883;SDS011;37915;53.254;6.598;2022-09-09T07:11:23;9.00;;;5.60;;
51883;SDS011;37915;53.254;6.598;2022-09-09T07:13:52;8.32;;;5.90;;
51883;SDS011;37915;53.254;6.598;2022-09-09T07:16:18;9.02;;;5.65;;
51883;SDS011;37915;53.254;6.598;2022-09-09T07:18:46;13.57;;;6.07;;
51883;SDS011;37915;53.254;6.598;2022-09-09T07:21:12;8.93;;;5.78;;
51883;SDS011;37915;53.254;6.598;2022-09-09T07:23:39;9.18;;;5.10;;
51883;SDS011;37915;53.254;6.598;2022-09-09T07:26:12;11.57;;;5.75;;
51883;SDS011;37915;53.254;6.598;2022-09-09T07:28:40;7.75;;;5.05;;
51883;SDS011;37915;53.254;6.598;2022-09-09T07:31:06;8.00;;;4.82;;
51883;SDS011;37915;53.254;6.598;2022-09-09T07:33:38;7.30;;;4.80;;
51883;SDS011;37915;53.254;6.598;2022-09-09T07:36:10;11.15;;;5.13;;
51883;SDS011;37915;53.254;6.598;2022-09-09T07:38:46;9.05;;;5.20;;
51883;SDS011;37915;53.254;6.598;2022-09-09T07:41:24;9.13;;;5.22;;
51883;SDS011;37915;53.254;6.598;2022-09-09T07:43:55;10.45;;;4.72;;
51883;SDS011;37915;53.254;6.598;2022-09-09T07:46:22;5.93;;;4.13;;
51883;SDS011;37915;53.254;6.598;2022-09-09T07:48:51;9.60;;;5.43;;
51883;SDS011;37915;53.254;6.598;2022-09-09T07:51:26;8.13;;;5.43;;
51883;SDS011;37915;53.254;6.598;2022-09-09T07:53:57;6.25;;;4.43;;
51883;SDS011;37915;53.254;6.598;2022-09-09T07:56:29;6.80;;;4.53;;
51883;SDS011;37915;53.254;6.598;2022-09-09T07:58:56;8.10;;;4.90;;
51883;SDS011;37915;53.254;6.598;2022-09-09T08:01:25;10.50;;;5.03;;
51883;SDS011;37915;53.254;6.598;2022-09-09T08:03:54;10.65;;;5.32;;
51883;SDS011;37915;53.254;6.598;2022-09-09T08:06:33;8.48;;;4.53;;
51883;SDS011;37915;53.254;6.598;2022-09-09T08:09:01;8.10;;;4.88;;
51883;SDS011;37915;53.254;6.598;2022-09-09T08:11:28;11.88;;;5.45;;
51883;SDS011;37915;53.254;6.598;2022-09-09T08:13:55;10.90;;;5.30;;
51883;SDS011;37915;53.254;6.598;2022-09-09T08:16:22;7.82;;;4.32;;
51883;SDS011;37915;53.254;6.598;2022-09-09T08:18:50;6.55;;;4.13;;
51883;SDS011;37915;53.254;6.598;2022-09-09T08:21:20;9.35;;;4.45;;
51883;SDS011;37915;53.254;6.598;2022-09-09T08:23:49;6.55;;;4.07;;
51883;SDS011;37915;53.254;6.598;2022-09-09T08:26:33;7.47;;;4.85;;
51883;SDS011;37915;53.254;6.598;2022-09-09T08:29:01;8.63;;;4.22;;
51883;SDS011;37915;53.254;6.598;2022-09-09T08:31:33;6.70;;;4.32;;
51883;SDS011;37915;53.254;6.598;2022-09-09T08:34:00;7.25;;;4.15;;
51883;SDS011;37915;53.254;6.598;2022-09-09T08:36:29;6.22;;;3.80;;
51883;SDS011;37915;53.254;6.598;2022-09-09T08:38:58;6.80;;;4.70;;
51883;SDS011;37915;53.254;6.598;2022-09-09T08:58:14;6.50;;;3.75;;
51883;SDS011;37915;53.254;6.598;2022-09-09T09:09:04;4.65;;;2.90;;
51883;SDS011;37915;53.254;6.598;2022-09-09T09:11:43;4.57;;;3.03;;
51883;SDS011;37915;53.254;6.598;2022-09-09T09:14:19;6.15;;;3.00;;
51883;SDS011;37915;53.254;6.598;2022-09-09T09:16:58;7.25;;;3.25;;
51883;SDS011;37915;53.254;6.598;2022-09-09T09:19:27;5.85;;;2.83;;
51883;SDS011;37915;53.254;6.598;2022-09-09T09:22:06;6.95;;;3.30;;
51883;SDS011;37915;53.254;6.598;2022-09-09T09:24:57;7.07;;;3.40;;
51883;SDS011;37915;53.254;6.598;2022-09-09T09:27:35;7.93;;;3.78;;
51883;SDS011;37915;53.254;6.598;2022-09-09T09:30:15;7.18;;;3.50;;
51883;SDS011;37915;53.254;6.598;2022-09-09T09:32:53;7.05;;;3.38;;
51883;SDS011;37915;53.254;6.598;2022-09-09T09:35:25;6.13;;;3.35;;
51883;SDS011;37915;53.254;6.598;2022-09-09T09:37:51;6.40;;;3.67;;
51883;SDS011;37915;53.254;6.598;2022-09-09T09:40:19;5.50;;;3.35;;
51883;SDS011;37915;53.254;6.598;2022-09-09T09:43:20;6.05;;;3.15;;
51883;SDS011;37915;53.254;6.598;2022-09-09T09:45:45;6.97;;;3.00;;
51883;SDS011;37915;53.254;6.598;2022-09-09T09:48:11;7.38;;;3.15;;
51883;SDS011;37915;53.254;6.598;2022-09-09T09:50:49;5.75;;;2.85;;
51883;SDS011;37915;53.254;6.598;2022-09-09T09:53:24;6.03;;;3.35;;
51883;SDS011;37915;53.254;6.598;2022-09-09T09:55:59;6.57;;;3.28;;
51883;SDS011;37915;53.254;6.598;2022-09-09T09:58:27;7.07;;;3.58;;
51883;SDS011;37915;53.254;6.598;2022-09-09T10:00:57;6.35;;;3.10;;
51883;SDS011;37915;53.254;6.598;2022-09-09T10:03:26;7.95;;;3.05;;
51883;SDS011;37915;53.254;6.598;2022-09-09T10:05:54;5.95;;;2.55;;
51883;SDS011;37915;53.254;6.598;2022-09-09T10:08:21;7.28;;;2.60;;
51883;SDS011;37915;53.254;6.598;2022-09-09T10:19:33;6.63;;;2.60;;
51883;SDS011;37915;53.254;6.598;2022-09-09T10:30:03;8.48;;;2.83;;
51883;SDS011;37915;53.254;6.598;2022-09-09T10:46:33;8.77;;;2.70;;
51883;SDS011;37915;53.254;6.598;2022-09-09T10:56:58;6.22;;;2.10;;
51883;SDS011;37915;53.254;6.598;2022-09-09T10:59:36;7.13;;;2.88;;
51883;SDS011;37915;53.254;6.598;2022-09-09T11:02:27;8.85;;;2.47;;
51883;SDS011;37915;53.254;6.598;2022-09-09T11:05:04;8.93;;;2.10;;
51883;SDS011;37915;53.254;6.598;2022-09-09T11:07:47;6.57;;;2.30;;
51883;SDS011;37915;53.254;6.598;2022-09-09T11:10:34;6.65;;;2.00;;
51883;SDS011;37915;53.254;6.598;2022-09-09T11:13:17;5.43;;;2.33;;
51883;SDS011;37915;53.254;6.598;2022-09-09T11:15:50;6.78;;;2.00;;
51883;SDS011;37915;53.254;6.598;2022-09-09T11:18:20;7.80;;;2.95;;
51883;SDS011;37915;53.254;6.598;2022-09-09T11:20:49;6.68;;;2.30;;
51883;SDS011;37915;53.254;6.598;2022-09-09T11:23:25;5.47;;;1.90;;
51883;SDS011;37915;53.254;6.598;2022-09-09T11:25:59;4.82;;;2.17;;
51883;SDS011;37915;53.254;6.598;2022-09-09T11:44:45;5.30;;;1.50;;
51883;SDS011;37915;53.254;6.598;2022-09-09T11:49:46;4.55;;;1.38;;
51883;SDS011;37915;53.254;6.598;2022-09-09T11:55:07;3.35;;;1.20;;
51883;SDS011;37915;53.254;6.598;2022-09-09T11:58:01;6.88;;;1.38;;
51883;SDS011;37915;53.254;6.598;2022-09-09T12:00:41;4.90;;;1.92;;
51883;SDS011;37915;53.254;6.598;2022-09-09T12:09:07;3.45;;;1.40;;
51883;SDS011;37915;53.254;6.598;2022-09-09T12:11:52;6.97;;;1.50;;
51883;SDS011;37915;53.254;6.598;2022-09-09T12:17:24;7.03;;;1.88;;
51883;SDS011;37915;53.254;6.598;2022-09-09T12:20:02;6.90;;;2.10;;
51883;SDS011;37915;53.254;6.598;2022-09-09T12:22:57;3.10;;;1.40;;
51883;SDS011;37915;53.254;6.598;2022-09-09T12:25:35;5.88;;;1.55;;
51883;SDS011;37915;53.254;6.598;2022-09-09T12:28:22;5.60;;;1.52;;
51883;SDS011;37915;53.254;6.598;2022-09-09T12:31:02;5.13;;;1.33;;
51883;SDS011;37915;53.254;6.598;2022-09-09T12:33:39;6.60;;;1.63;;
51883;SDS011;37915;53.254;6.598;2022-09-09T12:36:12;4.07;;;1.30;;
51883;SDS011;37915;53.254;6.598;2022-09-09T12:38:44;4.38;;;1.38;;
51883;SDS011;37915;53.254;6.598;2022-09-09T12:41:21;6.03;;;1.40;;
51883;SDS011;37915;53.254;6.598;2022-09-09T12:43:48;5.68;;;1.50;;
51883;SDS011;37915;53.254;6.598;2022-09-09T12:46:21;4.80;;;1.33;;
51883;SDS011;37915;53.254;6.598;2022-09-09T12:49:01;7.00;;;1.35;;
51883;SDS011;37915;53.254;6.598;2022-09-09T12:51:28;3.03;;;1.20;;
51883;SDS011;37915;53.254;6.598;2022-09-09T12:53:58;7.85;;;1.50;;
51883;SDS011;37915;53.254;6.598;2022-09-09T12:56:26;5.68;;;1.63;;
51883;SDS011;37915;53.254;6.598;2022-09-09T12:58:55;5.25;;;1.48;;
51883;SDS011;37915;53.254;6.598;2022-09-09T13:01:27;7.05;;;1.25;;
51883;SDS011;37915;53.254;6.598;2022-09-09T13:03:58;7.85;;;1.83;;
51883;SDS011;37915;53.254;6.598;2022-09-09T13:06:25;5.63;;;1.55;;
51883;SDS011;37915;53.254;6.598;2022-09-09T13:08:52;4.25;;;1.55;;
51883;SDS011;37915;53.254;6.598;2022-09-09T13:11:27;7.13;;;1.45;;
51883;SDS011;37915;53.254;6.598;2022-09-09T13:13:58;6.03;;;1.55;;
51883;SDS011;37915;53.254;6.598;2022-09-09T13:16:34;5.63;;;1.40;;
51883;SDS011;37915;53.254;6.598;2022-09-09T13:19:01;5.63;;;1.67;;
51883;SDS011;37915;53.254;6.598;2022-09-09T13:21:41;5.90;;;1.17;;
51883;SDS011;37915;53.254;6.598;2022-09-09T13:26:59;3.25;;;1.30;;
51883;SDS011;37915;53.254;6.598;2022-09-09T13:29:27;5.53;;;1.67;;
51883;SDS011;37915;53.254;6.598;2022-09-09T13:31:54;5.20;;;1.50;;
51883;SDS011;37915;53.254;6.598;2022-09-09T13:34:37;4.20;;;1.42;;
51883;SDS011;37915;53.254;6.598;2022-09-09T13:37:04;7.07;;;1.63;;
51883;SDS011;37915;53.254;6.598;2022-09-09T13:39:35;3.65;;;1.15;;
51883;SDS011;37915;53.254;6.598;2022-09-09T13:42:02;3.85;;;1.33;;
51883;SDS011;37915;53.254;6.598;2022-09-09T13:44:34;4.78;;;1.60;;
51883;SDS011;37915;53.254;6.598;2022-09-09T13:47:05;3.58;;;1.17;;
51883;SDS011;37915;53.254;6.598;2022-09-09T13:49:42;4.85;;;1.42;;
51883;SDS011;37915;53.254;6.598;2022-09-09T13:52:12;5.47;;;1.30;;
51883;SDS011;37915;53.254;6.598;2022-09-09T13:54:39;4.72;;;1.50;;
51883;SDS011;37915;53.254;6.598;2022-09-09T13:57:11;9.32;;;1.75;;
51883;SDS011;37915;53.254;6.598;2022-09-09T13:59:50;4.00;;;1.50;;
51883;SDS011;37915;53.254;6.598;2022-09-09T14:02:17;5.50;;;1.48;;
51883;SDS011;37915;53.254;6.598;2022-09-09T14:04:43;5.93;;;1.52;;
51883;SDS011;37915;53.254;6.598;2022-09-09T14:07:13;6.30;;;1.75;;
51883;SDS011;37915;53.254;6.598;2022-09-09T14:09:40;5.32;;;1.70;;
51883;SDS011;37915;53.254;6.598;2022-09-09T14:12:10;5.38;;;1.40;;
51883;SDS011;37915;53.254;6.598;2022-09-09T14:14:37;4.35;;;1.08;;
51883;SDS011;37915;53.254;6.598;2022-09-09T14:17:02;4.90;;;1.40;;
51883;SDS011;37915;53.254;6.598;2022-09-09T14:19:29;2.45;;;1.00;;
51883;SDS011;37915;53.254;6.598;2022-09-09T14:21:56;4.47;;;0.90;;
51883;SDS011;37915;53.254;6.598;2022-09-09T14:24:22;2.90;;;1.02;;
51883;SDS011;37915;53.254;6.598;2022-09-09T14:26:48;2.80;;;0.90;;
51883;SDS011;37915;53.254;6.598;2022-09-09T14:29:14;2.67;;;0.93;;
51883;SDS011;37915;53.254;6.598;2022-09-09T14:31:39;2.90;;;0.98;;
51883;SDS011;37915;53.254;6.598;2022-09-09T14:34:05;2.55;;;0.82;;
51883;SDS011;37915;53.254;6.598;2022-09-09T14:36:31;3.25;;;1.23;;
51883;SDS011;37915;53.254;6.598;2022-09-09T14:38:57;2.70;;;0.70;;
51883;SDS011;37915;53.254;6.598;2022-09-09T14:41:23;2.83;;;0.95;;
51883;SDS011;37915;53.254;6.598;2022-09-09T14:43:50;3.60;;;1.02;;
51883;SDS011;37915;53.254;6.598;2022-09-09T14:46:18;2.80;;;1.20;;
51883;SDS011;37915;53.254;6.598;2022-09-09T14:48:45;4.03;;;1.15;;
51883;SDS011;37915;53.254;6.598;2022-09-09T14:51:15;3.40;;;1.15;;
51883;SDS011;37915;53.254;6.598;2022-09-09T14:53:42;1.85;;;0.80;;
51883;SDS011;37915;53.254;6.598;2022-09-09T14:56:18;5.18;;;1.08;;
51883;SDS011;37915;53.254;6.598;2022-09-09T14:58:47;6.03;;;1.25;;
51883;SDS011;37915;53.254;6.598;2022-09-09T15:01:14;3.35;;;1.10;;
51883;SDS011;37915;53.254;6.598;2022-09-09T15:03:42;3.42;;;0.90;;
51883;SDS011;37915;53.254;6.598;2022-09-09T15:06:13;3.13;;;0.90;;
51883;SDS011;37915;53.254;6.598;2022-09-09T15:08:40;2.45;;;0.80;;
51883;SDS011;37915;53.254;6.598;2022-09-09T15:11:08;4.68;;;1.20;;
51883;SDS011;37915;53.254;6.598;2022-09-09T15:13:35;4.53;;;1.30;;
51883;SDS011;37915;53.254;6.598;2022-09-09T15:16:14;5.55;;;1.38;;
51883;SDS011;37915;53.254;6.598;2022-09-09T15:18:42;3.85;;;1.30;;
51883;SDS011;37915;53.254;6.598;2022-09-09T15:21:10;5.45;;;2.10;;
51883;SDS011;37915;53.254;6.598;2022-09-09T15:23:40;6.38;;;1.52;;
51883;SDS011;37915;53.254;6.598;2022-09-09T15:26:07;5.03;;;1.63;;
51883;SDS011;37915;53.254;6.598;2022-09-09T15:28:34;5.50;;;1.50;;
51883;SDS011;37915;53.254;6.598;2022-09-09T15:31:04;4.82;;;1.80;;
51883;SDS011;37915;53.254;6.598;2022-09-09T15:33:32;6.03;;;1.60;;
51883;SDS011;37915;53.254;6.598;2022-09-09T15:35:58;5.88;;;1.90;;
51883;SDS011;37915;53.254;6.598;2022-09-09T15:38:24;8.40;;;1.90;;
51883;SDS011;37915;53.254;6.598;2022-09-09T15:40:54;8.13;;;2.42;;
51883;SDS011;37915;53.254;6.598;2022-09-09T15:43:20;4.25;;;1.88;;
51883;SDS011;37915;53.254;6.598;2022-09-09T15:45:48;4.30;;;2.20;;
51883;SDS011;37915;53.254;6.598;2022-09-09T15:48:19;5.10;;;1.92;;
51883;SDS011;37915;53.254;6.598;2022-09-09T15:51:01;6.38;;;2.22;;
51883;SDS011;37915;53.254;6.598;2022-09-09T15:53:28;7.97;;;1.88;;
51883;SDS011;37915;53.254;6.598;2022-09-09T15:55:55;5.38;;;1.80;;
51883;SDS011;37915;53.254;6.598;2022-09-09T15:58:20;5.05;;;1.70;;
51883;SDS011;37915;53.254;6.598;2022-09-09T16:00:46;3.38;;;1.52;;
51883;SDS011;37915;53.254;6.598;2022-09-09T16:03:12;3.38;;;1.15;;
51883;SDS011;37915;53.254;6.598;2022-09-09T16:05:38;5.53;;;1.75;;
51883;SDS011;37915;53.254;6.598;2022-09-09T16:08:04;3.30;;;1.40;;
51883;SDS011;37915;53.254;6.598;2022-09-09T16:10:29;3.80;;;1.50;;
51883;SDS011;37915;53.254;6.598;2022-09-09T16:12:56;3.63;;;1.40;;
51883;SDS011;37915;53.254;6.598;2022-09-09T16:15:21;6.57;;;1.40;;
51883;SDS011;37915;53.254;6.598;2022-09-09T16:17:48;3.70;;;1.20;;
51883;SDS011;37915;53.254;6.598;2022-09-09T16:20:14;3.30;;;1.48;;
51883;SDS011;37915;53.254;6.598;2022-09-09T16:22:40;3.63;;;1.15;;
51883;SDS011;37915;53.254;6.598;2022-09-09T16:25:07;5.00;;;1.38;;
51883;SDS011;37915;53.254;6.598;2022-09-09T16:27:33;3.78;;;1.10;;
51883;SDS011;37915;53.254;6.598;2022-09-09T16:29:59;3.05;;;1.20;;
51883;SDS011;37915;53.254;6.598;2022-09-09T16:32:24;3.17;;;1.20;;
51883;SDS011;37915;53.254;6.598;2022-09-09T16:34:50;3.97;;;1.70;;
51883;SDS011;37915;53.254;6.598;2022-09-09T16:37:16;5.00;;;1.50;;
51883;SDS011;37915;53.254;6.598;2022-09-09T16:39:42;7.05;;;1.80;;
51883;SDS011;37915;53.254;6.598;2022-09-09T16:42:08;4.57;;;2.00;;
51883;SDS011;37915;53.254;6.598;2022-09-09T16:44:34;4.72;;;1.85;;
51883;SDS011;37915;53.254;6.598;2022-09-09T16:47:00;4.75;;;1.70;;
51883;SDS011;37915;53.254;6.598;2022-09-09T16:49:26;7.40;;;1.70;;
51883;SDS011;37915;53.254;6.598;2022-09-09T16:51:53;4.63;;;1.95;;
51883;SDS011;37915;53.254;6.598;2022-09-09T16:54:19;5.85;;;3.08;;
51883;SDS011;37915;53.254;6.598;2022-09-09T16:56:46;3.53;;;1.48;;
51883;SDS011;37915;53.254;6.598;2022-09-09T16:59:13;4.15;;;1.60;;
51883;SDS011;37915;53.254;6.598;2022-09-09T17:01:41;4.15;;;2.00;;
51883;SDS011;37915;53.254;6.598;2022-09-09T17:04:12;6.15;;;1.80;;
51883;SDS011;37915;53.254;6.598;2022-09-09T17:06:45;4.28;;;1.70;;
51883;SDS011;37915;53.254;6.598;2022-09-09T17:09:15;4.22;;;1.67;;
51883;SDS011;37915;53.254;6.598;2022-09-09T17:11:41;3.85;;;1.48;;
51883;SDS011;37915;53.254;6.598;2022-09-09T17:14:07;3.83;;;1.77;;
51883;SDS011;37915;53.254;6.598;2022-09-09T17:16:36;3.47;;;1.42;;
51883;SDS011;37915;53.254;6.598;2022-09-09T17:19:04;4.97;;;1.48;;
51883;SDS011;37915;53.254;6.598;2022-09-09T17:21:30;5.93;;;1.92;;
51883;SDS011;37915;53.254;6.598;2022-09-09T17:23:57;7.00;;;1.80;;
51883;SDS011;37915;53.254;6.598;2022-09-09T17:26:25;5.50;;;1.52;;
51883;SDS011;37915;53.254;6.598;2022-09-09T17:28:52;3.65;;;1.63;;
51883;SDS011;37915;53.254;6.598;2022-09-09T17:31:20;4.43;;;1.55;;
51883;SDS011;37915;53.254;6.598;2022-09-09T17:33:47;4.45;;;1.60;;
51883;SDS011;37915;53.254;6.598;2022-09-09T17:36:24;4.22;;;1.50;;
51883;SDS011;37915;53.254;6.598;2022-09-09T17:38:52;6.05;;;1.60;;